PWSweather.com
Personal Weather Stations
Station Observations
KMIEASTT1
Tawas Bay, East Tawas, MI 48730

Tawas BayEast Tawas, MI 48730

Lat: 44.28, Lon: -83.48

Elevation: 600

Station Type: Davis VantagePro

http://www.tawasbayweather.com

High Low Average
Temperature 33.0°F0.6°C 27.8°F-2.3°C 30.3°F-0.9°C
Dew Point 29.9°F-1.2°C 18.4°F-7.6°C 24.4°F-4.2°C
Winds 22.0 mph 35.4 kmh 2.0 mph 3.2 kmh 10.0 mph W16.1 kmh W
Wind Gusts 30.0 mph48.3 kmh 7.0 mph11.3 kmh 16.0 mph25.7 kmh
Humidity 90% 64% 79%
Pressure 30.24 in1024.0 mb 29.67 in1004.7 mb -
Precipitation 0.00 in0.0 mm - -
Hour Temp Dew Point Humidity Winds Wind Gusts Pressure Precip Precip Rate Daily Precip Total
12:01 AM 33.0°F0.6°C 29.8°F-1.2°C 88% 14.0 mph SW22.5 kmh SW 22.0 mph35.4 kmh 29.67 in1004.7 mb 0.00 in0.0 mm 0.00 in/hr0.0 mm/hr 0.00 in0.0 mm
12:16 AM 32.5°F0.3°C 29.9°F-1.2°C 90% 14.0 mph WSW22.5 kmh WSW 20.0 mph32.2 kmh 29.68 in1005.1 mb 0.00 in0.0 mm 0.00 in/hr0.0 mm/hr 0.00 in0.0 mm
12:30 AM 32.5°F0.3°C 29.6°F-1.3°C 89% 14.0 mph SW22.5 kmh SW 24.0 mph38.6 kmh 29.69 in1005.4 mb 0.00 in0.0 mm 0.00 in/hr0.0 mm/hr 0.00 in0.0 mm
12:46 AM 32.6°F0.3°C 29.2°F-1.6°C 87% 13.0 mph WSW20.9 kmh WSW 23.0 mph37.0 kmh 29.70 in1005.8 mb 0.00 in0.0 mm 0.00 in/hr0.0 mm/hr 0.00 in0.0 mm
01:01 AM 32.4°F0.2°C 29.3°F-1.5°C 88% 21.0 mph W33.8 kmh W 22.0 mph35.4 kmh 29.71 in1006.1 mb 0.00 in0.0 mm 0.00 in/hr0.0 mm/hr 0.00 in0.0 mm
01:15 AM 32.3°F0.2°C 28.6°F-1.9°C 86% 14.0 mph WSW22.5 kmh WSW 22.0 mph35.4 kmh 29.72 in1006.4 mb 0.00 in0.0 mm 0.00 in/hr0.0 mm/hr 0.00 in0.0 mm
01:30 AM 32.0°F0.0°C 28.3°F-2.1°C 86% 12.0 mph WSW19.3 kmh WSW 21.0 mph33.8 kmh 29.73 in1006.8 mb 0.00 in0.0 mm 0.00 in/hr0.0 mm/hr 0.00 in0.0 mm
01:45 AM 31.9°F-0.1°C 27.9°F-2.3°C 85% 13.0 mph W20.9 kmh W 23.0 mph37.0 kmh 29.74 in1007.1 mb 0.00 in0.0 mm 0.00 in/hr0.0 mm/hr 0.00 in0.0 mm
02:01 AM 31.7°F-0.2°C 27.4°F-2.6°C 84% 18.0 mph WSW29.0 kmh WSW 21.0 mph33.8 kmh 29.74 in1007.1 mb 0.00 in0.0 mm 0.00 in/hr0.0 mm/hr 0.00 in0.0 mm
02:15 AM 31.5°F-0.3°C 27.5°F-2.5°C 85% 18.0 mph WSW29.0 kmh WSW 21.0 mph33.8 kmh 29.75 in1007.5 mb 0.00 in0.0 mm 0.00 in/hr0.0 mm/hr 0.00 in0.0 mm
02:30 AM 31.5°F-0.3°C 27.5°F-2.5°C 85% 18.0 mph WSW29.0 kmh WSW 23.0 mph37.0 kmh 29.76 in1007.8 mb 0.00 in0.0 mm 0.00 in/hr0.0 mm/hr 0.00 in0.0 mm
02:46 AM 31.5°F-0.3°C 27.5°F-2.5°C 85% 17.0 mph W27.4 kmh W 19.0 mph30.6 kmh 29.77 in1008.1 mb 0.00 in0.0 mm 0.00 in/hr0.0 mm/hr 0.00 in0.0 mm
03:01 AM 31.5°F-0.3°C 27.2°F-2.7°C 84% 22.0 mph WSW35.4 kmh WSW 22.0 mph35.4 kmh 29.78 in1008.5 mb 0.00 in0.0 mm 0.00 in/hr0.0 mm/hr 0.00 in0.0 mm
03:16 AM 31.5°F-0.3°C 26.7°F-2.9°C 82% 20.0 mph WSW32.2 kmh WSW 21.0 mph33.8 kmh 29.79 in1008.8 mb 0.00 in0.0 mm 0.00 in/hr0.0 mm/hr 0.00 in0.0 mm
03:30 AM 31.3°F-0.4°C 26.2°F-3.2°C 81% 17.0 mph WSW27.4 kmh WSW 21.0 mph33.8 kmh 29.79 in1008.8 mb 0.00 in0.0 mm 0.00 in/hr0.0 mm/hr 0.00 in0.0 mm
03:45 AM 31.2°F-0.4°C 25.8°F-3.4°C 80% 12.0 mph W19.3 kmh W 30.0 mph48.3 kmh 29.80 in1009.1 mb 0.00 in0.0 mm 0.00 in/hr0.0 mm/hr 0.00 in0.0 mm
04:01 AM 31.0°F-0.6°C 25.6°F-3.6°C 80% 14.0 mph WSW22.5 kmh WSW 22.0 mph35.4 kmh 29.80 in1009.1 mb 0.00 in0.0 mm 0.00 in/hr0.0 mm/hr 0.00 in0.0 mm
04:15 AM 30.9°F-0.6°C 25.5°F-3.6°C 80% 20.0 mph WSW32.2 kmh WSW 23.0 mph37.0 kmh 29.82 in1009.8 mb 0.00 in0.0 mm 0.00 in/hr0.0 mm/hr 0.00 in0.0 mm
04:31 AM 30.8°F-0.7°C 25.4°F-3.7°C 80% 12.0 mph WSW19.3 kmh WSW 22.0 mph35.4 kmh 29.83 in1010.2 mb 0.00 in0.0 mm 0.00 in/hr0.0 mm/hr 0.00 in0.0 mm
04:45 AM 30.9°F-0.6°C 25.2°F-3.8°C 79% 5.0 mph W8.0 kmh W 18.0 mph29.0 kmh 29.83 in1010.2 mb 0.00 in0.0 mm 0.00 in/hr0.0 mm/hr 0.00 in0.0 mm
05:01 AM 31.0°F-0.6°C 25.3°F-3.7°C 79% 12.0 mph WSW19.3 kmh WSW 20.0 mph32.2 kmh 29.84 in1010.5 mb 0.00 in0.0 mm 0.00 in/hr0.0 mm/hr 0.00 in0.0 mm
05:15 AM 30.9°F-0.6°C 25.2°F-3.8°C 79% 7.0 mph NW11.3 kmh NW 15.0 mph24.1 kmh 29.85 in1010.8 mb 0.00 in0.0 mm 0.00 in/hr0.0 mm/hr 0.00 in0.0 mm
05:30 AM 30.9°F-0.6°C 25.2°F-3.8°C 79% 10.0 mph W16.1 kmh W 20.0 mph32.2 kmh 29.86 in1011.2 mb 0.00 in0.0 mm 0.00 in/hr0.0 mm/hr 0.00 in0.0 mm
05:45 AM 30.9°F-0.6°C 25.5°F-3.6°C 80% 6.0 mph W9.7 kmh W 14.0 mph22.5 kmh 29.86 in1011.2 mb 0.00 in0.0 mm 0.00 in/hr0.0 mm/hr 0.00 in0.0 mm
06:01 AM 30.8°F-0.7°C 25.4°F-3.7°C 80% 5.0 mph W8.0 kmh W 15.0 mph24.1 kmh 29.87 in1011.5 mb 0.00 in0.0 mm 0.00 in/hr0.0 mm/hr 0.00 in0.0 mm
06:15 AM 30.8°F-0.7°C 25.7°F-3.5°C 81% 9.0 mph W14.5 kmh W 15.0 mph24.1 kmh 29.88 in1011.9 mb 0.00 in0.0 mm 0.00 in/hr0.0 mm/hr 0.00 in0.0 mm
06:30 AM 31.0°F-0.6°C 25.6°F-3.6°C 80% 6.0 mph WSW9.7 kmh WSW 11.0 mph17.7 kmh 29.89 in1012.2 mb 0.00 in0.0 mm 0.00 in/hr0.0 mm/hr 0.00 in0.0 mm
06:45 AM 31.0°F-0.6°C 25.6°F-3.6°C 80% 8.0 mph WSW12.9 kmh WSW 13.0 mph20.9 kmh 29.89 in1012.2 mb 0.00 in0.0 mm 0.00 in/hr0.0 mm/hr 0.00 in0.0 mm
07:01 AM 30.8°F-0.7°C 26.3°F-3.2°C 83% 14.0 mph WSW22.5 kmh WSW 16.0 mph25.7 kmh 29.88 in1011.9 mb 0.00 in0.0 mm 0.00 in/hr0.0 mm/hr 0.00 in0.0 mm
07:15 AM 30.8°F-0.7°C 25.7°F-3.5°C 81% 12.0 mph WSW19.3 kmh WSW 16.0 mph25.7 kmh 29.88 in1011.9 mb 0.00 in0.0 mm 0.00 in/hr0.0 mm/hr 0.00 in0.0 mm
07:30 AM 30.9°F-0.6°C 25.2°F-3.8°C 79% 15.0 mph WSW24.1 kmh WSW 16.0 mph25.7 kmh 29.88 in1011.9 mb 0.00 in0.0 mm 0.00 in/hr0.0 mm/hr 0.00 in0.0 mm
07:45 AM 30.9°F-0.6°C 25.2°F-3.8°C 79% 10.0 mph WSW16.1 kmh WSW 15.0 mph24.1 kmh 29.89 in1012.2 mb 0.00 in0.0 mm 0.00 in/hr0.0 mm/hr 0.00 in0.0 mm
08:01 AM 30.9°F-0.6°C 25.5°F-3.6°C 80% 8.0 mph W12.9 kmh W 16.0 mph25.7 kmh 29.90 in1012.5 mb 0.00 in0.0 mm 0.00 in/hr0.0 mm/hr 0.00 in0.0 mm
08:16 AM 30.9°F-0.6°C 25.5°F-3.6°C 80% 8.0 mph WSW12.9 kmh WSW 13.0 mph20.9 kmh 29.91 in1012.9 mb 0.00 in0.0 mm 0.00 in/hr0.0 mm/hr 0.00 in0.0 mm
08:31 AM 30.9°F-0.6°C 25.5°F-3.6°C 80% 13.0 mph WSW20.9 kmh WSW 20.0 mph32.2 kmh 29.92 in1013.2 mb 0.00 in0.0 mm 0.00 in/hr0.0 mm/hr 0.00 in0.0 mm
08:46 AM 30.9°F-0.6°C 25.2°F-3.8°C 79% 5.0 mph WSW8.0 kmh WSW 11.0 mph17.7 kmh 29.93 in1013.5 mb 0.00 in0.0 mm 0.00 in/hr0.0 mm/hr 0.00 in0.0 mm
09:01 AM 30.7°F-0.7°C 25.6°F-3.6°C 81% 16.0 mph W25.7 kmh W 20.0 mph32.2 kmh 29.94 in1013.9 mb 0.00 in0.0 mm 0.00 in/hr0.0 mm/hr 0.00 in0.0 mm
09:15 AM 30.6°F-0.8°C 25.8°F-3.4°C 82% 10.0 mph WSW16.1 kmh WSW 12.0 mph19.3 kmh 29.95 in1014.2 mb 0.00 in0.0 mm 0.00 in/hr0.0 mm/hr 0.00 in0.0 mm
09:30 AM 30.4°F-0.9°C 25.9°F-3.4°C 83% 5.0 mph WSW8.0 kmh WSW 10.0 mph16.1 kmh 29.96 in1014.6 mb 0.00 in0.0 mm 0.00 in/hr0.0 mm/hr 0.00 in0.0 mm
09:46 AM 30.2°F-1.0°C 26.2°F-3.2°C 85% 8.0 mph WSW12.9 kmh WSW 10.0 mph16.1 kmh 29.97 in1014.9 mb 0.00 in0.0 mm 0.00 in/hr0.0 mm/hr 0.00 in0.0 mm
10:01 AM 30.2°F-1.0°C 26.2°F-3.2°C 85% 8.0 mph WNW12.9 kmh WNW 10.0 mph16.1 kmh 29.98 in1015.2 mb 0.00 in0.0 mm 0.00 in/hr0.0 mm/hr 0.00 in0.0 mm
10:16 AM 30.2°F-1.0°C 26.8°F-2.9°C 87% 2.0 mph NW3.2 kmh NW 7.0 mph11.3 kmh 30.00 in1015.9 mb 0.00 in0.0 mm 0.00 in/hr0.0 mm/hr 0.00 in0.0 mm
10:31 AM 29.7°F-1.3°C 26.0°F-3.3°C 86% 7.0 mph WNW11.3 kmh WNW 12.0 mph19.3 kmh 30.00 in1015.9 mb 0.00 in0.0 mm 0.00 in/hr0.0 mm/hr 0.00 in0.0 mm
10:46 AM 29.7°F-1.3°C 25.5°F-3.6°C 84% 5.0 mph NW8.0 kmh NW 13.0 mph20.9 kmh 30.01 in1016.3 mb 0.00 in0.0 mm 0.00 in/hr0.0 mm/hr 0.00 in0.0 mm
11:01 AM 29.6°F-1.3°C 24.8°F-4.0°C 82% 3.0 mph W4.8 kmh W 11.0 mph17.7 kmh 30.02 in1016.6 mb 0.00 in0.0 mm 0.00 in/hr0.0 mm/hr 0.00 in0.0 mm
11:16 AM 29.6°F-1.3°C 25.1°F-3.8°C 83% 5.0 mph WNW8.0 kmh WNW 10.0 mph16.1 kmh 30.03 in1016.9 mb 0.00 in0.0 mm 0.00 in/hr0.0 mm/hr 0.00 in0.0 mm
11:30 AM 29.7°F-1.3°C 25.2°F-3.8°C 83% 7.0 mph W11.3 kmh W 12.0 mph19.3 kmh 30.04 in1017.3 mb 0.00 in0.0 mm 0.00 in/hr0.0 mm/hr 0.00 in0.0 mm
11:46 AM 29.4°F-1.4°C 24.9°F-3.9°C 83% 6.0 mph NW9.7 kmh NW 13.0 mph20.9 kmh 30.04 in1017.3 mb 0.00 in0.0 mm 0.00 in/hr0.0 mm/hr 0.00 in0.0 mm
12:01 PM 29.3°F-1.5°C 24.5°F-4.2°C 82% 6.0 mph WNW9.7 kmh WNW 12.0 mph19.3 kmh 30.04 in1017.3 mb 0.00 in0.0 mm 0.00 in/hr0.0 mm/hr 0.00 in0.0 mm
12:15 PM 29.3°F-1.5°C 24.2°F-4.3°C 81% 5.0 mph W8.0 kmh W 14.0 mph22.5 kmh 30.04 in1017.3 mb 0.00 in0.0 mm 0.00 in/hr0.0 mm/hr 0.00 in0.0 mm
12:30 PM 29.0°F-1.7°C 23.9°F-4.5°C 81% 5.0 mph WNW8.0 kmh WNW 13.0 mph20.9 kmh 30.05 in1017.6 mb 0.00 in0.0 mm 0.00 in/hr0.0 mm/hr 0.00 in0.0 mm
12:46 PM 29.8°F-1.2°C 22.5°F-5.3°C 74% 14.0 mph WNW22.5 kmh WNW 15.0 mph24.1 kmh 30.05 in1017.6 mb 0.00 in0.0 mm 0.00 in/hr0.0 mm/hr 0.00 in0.0 mm
01:01 PM 30.7°F-0.7°C 22.1°F-5.5°C 70% 6.0 mph W9.7 kmh W 16.0 mph25.7 kmh 30.05 in1017.6 mb 0.00 in0.0 mm 0.00 in/hr0.0 mm/hr 0.00 in0.0 mm
01:16 PM 30.1°F-1.1°C 21.9°F-5.6°C 71% 9.0 mph WNW14.5 kmh WNW 17.0 mph27.4 kmh 30.06 in1017.9 mb 0.00 in0.0 mm 0.00 in/hr0.0 mm/hr 0.00 in0.0 mm
01:31 PM 29.4°F-1.4°C 23.7°F-4.6°C 79% 7.0 mph NW11.3 kmh NW 12.0 mph19.3 kmh 30.06 in1017.9 mb 0.00 in0.0 mm 0.00 in/hr0.0 mm/hr 0.00 in0.0 mm
01:46 PM 29.8°F-1.2°C 22.2°F-5.4°C 73% 5.0 mph NW8.0 kmh NW 15.0 mph24.1 kmh 30.07 in1018.3 mb 0.00 in0.0 mm 0.00 in/hr0.0 mm/hr 0.00 in0.0 mm
02:01 PM 29.7°F-1.3°C 22.1°F-5.5°C 73% 9.0 mph NW14.5 kmh NW 16.0 mph25.7 kmh 30.07 in1018.3 mb 0.00 in0.0 mm 0.00 in/hr0.0 mm/hr 0.00 in0.0 mm
02:16 PM 29.5°F-1.4°C 21.6°F-5.8°C 72% 8.0 mph W12.9 kmh W 20.0 mph32.2 kmh 30.08 in1018.6 mb 0.00 in0.0 mm 0.00 in/hr0.0 mm/hr 0.00 in0.0 mm
02:30 PM 29.5°F-1.4°C 21.3°F-5.9°C 71% 8.0 mph WNW12.9 kmh WNW 15.0 mph24.1 kmh 30.08 in1018.6 mb 0.00 in0.0 mm 0.00 in/hr0.0 mm/hr 0.00 in0.0 mm
02:45 PM 29.2°F-1.6°C 22.0°F-5.6°C 74% 8.0 mph NW12.9 kmh NW 16.0 mph25.7 kmh 30.09 in1019.0 mb 0.00 in0.0 mm 0.00 in/hr0.0 mm/hr 0.00 in0.0 mm
03:01 PM 29.1°F-1.6°C 21.5°F-5.8°C 73% 10.0 mph NW16.1 kmh NW 14.0 mph22.5 kmh 30.10 in1019.3 mb 0.00 in0.0 mm 0.00 in/hr0.0 mm/hr 0.00 in0.0 mm
03:15 PM 29.1°F-1.6°C 21.2°F-6.0°C 72% 7.0 mph N11.3 kmh N 13.0 mph20.9 kmh 30.11 in1019.6 mb 0.00 in0.0 mm 0.00 in/hr0.0 mm/hr 0.00 in0.0 mm
03:31 PM 29.3°F-1.5°C 20.4°F-6.4°C 69% 8.0 mph NW12.9 kmh NW 12.0 mph19.3 kmh 30.12 in1020.0 mb 0.00 in0.0 mm 0.00 in/hr0.0 mm/hr 0.00 in0.0 mm
03:46 PM 29.0°F-1.7°C 19.1°F-7.2°C 66% 9.0 mph W14.5 kmh W 16.0 mph25.7 kmh 30.13 in1020.3 mb 0.00 in0.0 mm 0.00 in/hr0.0 mm/hr 0.00 in0.0 mm
04:02 PM 29.2°F-1.6°C 18.6°F-7.4°C 64% 9.0 mph NW14.5 kmh NW 12.0 mph19.3 kmh 30.14 in1020.7 mb 0.00 in0.0 mm 0.00 in/hr0.0 mm/hr 0.00 in0.0 mm
04:16 PM 29.0°F-1.7°C 18.4°F-7.6°C 64% 11.0 mph WNW17.7 kmh WNW 15.0 mph24.1 kmh 30.15 in1021.0 mb 0.00 in0.0 mm 0.00 in/hr0.0 mm/hr 0.00 in0.0 mm
04:31 PM 28.6°F-1.9°C 18.7°F-7.4°C 66% 12.0 mph W19.3 kmh W 13.0 mph20.9 kmh 30.16 in1021.3 mb 0.00 in0.0 mm 0.00 in/hr0.0 mm/hr 0.00 in0.0 mm
04:46 PM 28.4°F-2.0°C 19.5°F-6.9°C 69% 3.0 mph W4.8 kmh W 15.0 mph24.1 kmh 30.17 in1021.7 mb 0.00 in0.0 mm 0.00 in/hr0.0 mm/hr 0.00 in0.0 mm
05:02 PM 28.2°F-2.1°C 19.0°F-7.2°C 68% 7.0 mph NW11.3 kmh NW 18.0 mph29.0 kmh 30.18 in1022.0 mb 0.00 in0.0 mm 0.00 in/hr0.0 mm/hr 0.00 in0.0 mm
05:16 PM 28.2°F-2.1°C 19.7°F-6.8°C 70% 7.0 mph NW11.3 kmh NW 8.0 mph12.9 kmh 30.19 in1022.4 mb 0.00 in0.0 mm 0.00 in/hr0.0 mm/hr 0.00 in0.0 mm
05:31 PM 28.1°F-2.2°C 19.6°F-6.9°C 70% 6.0 mph NW9.7 kmh NW 11.0 mph17.7 kmh 30.21 in1023.0 mb 0.00 in0.0 mm 0.00 in/hr0.0 mm/hr 0.00 in0.0 mm
05:45 PM 27.9°F-2.3°C 20.4°F-6.4°C 73% 5.0 mph NW8.0 kmh NW 11.0 mph17.7 kmh 30.22 in1023.4 mb 0.00 in0.0 mm 0.00 in/hr0.0 mm/hr 0.00 in0.0 mm
06:01 PM 27.9°F-2.3°C 20.1°F-6.6°C 72% 6.0 mph WSW9.7 kmh WSW 10.0 mph16.1 kmh 30.23 in1023.7 mb 0.00 in0.0 mm 0.00 in/hr0.0 mm/hr 0.00 in0.0 mm
06:16 PM 27.8°F-2.3°C 20.3°F-6.5°C 73% 5.0 mph W8.0 kmh W 11.0 mph17.7 kmh 30.24 in1024.0 mb 0.00 in0.0 mm 0.00 in/hr0.0 mm/hr 0.00 in0.0 mm
06:31 PM 27.8°F-2.3°C 20.3°F-6.5°C 73% 8.0 mph WNW12.9 kmh WNW 9.0 mph14.5 kmh 30.24 in1024.0 mb 0.00 in0.0 mm 0.00 in/hr0.0 mm/hr 0.00 in0.0 mm
06:46 PM 27.8°F-2.3°C 20.3°F-6.5°C 73% 5.0 mph NW8.0 kmh NW 11.0 mph17.7 kmh 30.25 in1024.4 mb 0.00 in0.0 mm 0.00 in/hr0.0 mm/hr 0.00 in0.0 mm
07:01 PM 27.8°F-2.3°C 20.9°F-6.2°C 75% 5.0 mph W8.0 kmh W 8.0 mph12.9 kmh 30.26 in1024.7 mb 0.00 in0.0 mm 0.00 in/hr0.0 mm/hr 0.00 in0.0 mm
07:15 PM 27.7°F-2.4°C 20.5°F-6.4°C 74% 5.0 mph NW8.0 kmh NW 10.0 mph16.1 kmh 30.27 in1025.1 mb 0.00 in0.0 mm 0.00 in/hr0.0 mm/hr 0.00 in0.0 mm
07:31 PM 27.7°F-2.4°C 20.8°F-6.2°C 75% 4.0 mph NW6.4 kmh NW 7.0 mph11.3 kmh 30.27 in1025.1 mb 0.00 in0.0 mm 0.00 in/hr0.0 mm/hr 0.00 in0.0 mm
07:45 PM 27.6°F-2.4°C 20.4°F-6.4°C 74% 6.0 mph W9.7 kmh W 9.0 mph14.5 kmh 30.28 in1025.4 mb 0.00 in0.0 mm 0.00 in/hr0.0 mm/hr 0.00 in0.0 mm
08:01 PM 27.6°F-2.4°C 20.7°F-6.3°C 75% 2.0 mph WNW3.2 kmh WNW 7.0 mph11.3 kmh 30.28 in1025.4 mb 0.00 in0.0 mm 0.00 in/hr0.0 mm/hr 0.00 in0.0 mm
08:16 PM 27.5°F-2.5°C 20.6°F-6.3°C 75% 5.0 mph NW8.0 kmh NW 9.0 mph14.5 kmh 30.29 in1025.7 mb 0.00 in0.0 mm 0.00 in/hr0.0 mm/hr 0.00 in0.0 mm
08:30 PM 27.5°F-2.5°C 20.9°F-6.2°C 76% 3.0 mph NW4.8 kmh NW 7.0 mph11.3 kmh 30.30 in1026.1 mb 0.00 in0.0 mm 0.00 in/hr0.0 mm/hr 0.00 in0.0 mm
08:46 PM 27.4°F-2.6°C 20.8°F-6.2°C 76% 8.0 mph NNW12.9 kmh NNW 13.0 mph20.9 kmh 30.31 in1026.4 mb 0.00 in0.0 mm 0.00 in/hr0.0 mm/hr 0.00 in0.0 mm
09:02 PM 27.4°F-2.6°C 20.8°F-6.2°C 76% 8.0 mph NW12.9 kmh NW 14.0 mph22.5 kmh 30.31 in1026.4 mb 0.00 in0.0 mm 0.00 in/hr0.0 mm/hr 0.00 in0.0 mm
09:16 PM 27.4°F-2.6°C 20.8°F-6.2°C 76% 3.0 mph NW4.8 kmh NW 12.0 mph19.3 kmh 30.32 in1026.8 mb 0.00 in0.0 mm 0.00 in/hr0.0 mm/hr 0.00 in0.0 mm
09:31 PM 27.4°F-2.6°C 21.2°F-6.0°C 77% 9.0 mph W14.5 kmh W 10.0 mph16.1 kmh 30.32 in1026.8 mb 0.00 in0.0 mm 0.00 in/hr0.0 mm/hr 0.00 in0.0 mm
09:46 PM 27.3°F-2.6°C 21.4°F-5.9°C 78% 3.0 mph NW4.8 kmh NW 6.0 mph9.7 kmh 30.32 in1026.8 mb 0.00 in0.0 mm 0.00 in/hr0.0 mm/hr 0.00 in0.0 mm
10:02 PM 27.2°F-2.7°C 21.3°F-5.9°C 78% 3.0 mph NW4.8 kmh NW 6.0 mph9.7 kmh 30.33 in1027.1 mb 0.00 in0.0 mm 0.00 in/hr0.0 mm/hr 0.00 in0.0 mm
10:16 PM 27.1°F-2.7°C 20.9°F-6.2°C 77% 4.0 mph WNW6.4 kmh WNW 9.0 mph14.5 kmh 30.33 in1027.1 mb 0.00 in0.0 mm 0.00 in/hr0.0 mm/hr 0.00 in0.0 mm
10:30 PM 27.0°F-2.8°C 20.8°F-6.2°C 77% 6.0 mph WNW9.7 kmh WNW 7.0 mph11.3 kmh 30.33 in1027.1 mb 0.00 in0.0 mm 0.00 in/hr0.0 mm/hr 0.00 in0.0 mm
10:45 PM 26.9°F-2.8°C 20.7°F-6.3°C 77% 5.0 mph NW8.0 kmh NW 12.0 mph19.3 kmh 30.34 in1027.4 mb 0.00 in0.0 mm 0.00 in/hr0.0 mm/hr 0.00 in0.0 mm
11:01 PM 26.8°F-2.9°C 20.6°F-6.3°C 77% 5.0 mph NW8.0 kmh NW 7.0 mph11.3 kmh 30.34 in1027.4 mb 0.00 in0.0 mm 0.00 in/hr0.0 mm/hr 0.00 in0.0 mm
11:15 PM 26.7°F-2.9°C 20.5°F-6.4°C 77% 5.0 mph NW8.0 kmh NW 7.0 mph11.3 kmh 30.35 in1027.8 mb 0.00 in0.0 mm 0.00 in/hr0.0 mm/hr 0.00 in0.0 mm
11:30 PM 26.6°F-3.0°C 20.4°F-6.4°C 77% 7.0 mph WNW11.3 kmh WNW 11.0 mph17.7 kmh 30.34 in1027.4 mb 0.00 in0.0 mm 0.00 in/hr0.0 mm/hr 0.00 in0.0 mm
11:45 PM 26.6°F-3.0°C 20.4°F-6.4°C 77% 3.0 mph NNW4.8 kmh NNW 6.0 mph9.7 kmh 30.33 in1027.1 mb 0.00 in0.0 mm 0.00 in/hr0.0 mm/hr 0.00 in0.0 mm